createdAt,value
2023-02-11T00:01:10.372Z,98.50
2023-02-11T00:03:38.664Z,98.50
2023-02-11T00:06:11.105Z,98.50
2023-02-11T00:08:38.853Z,98.50
2023-02-11T00:11:05.947Z,98.50
2023-02-11T00:13:32.806Z,98.50
2023-02-11T00:15:59.592Z,98.50
2023-02-11T00:18:26.279Z,98.50
2023-02-11T00:20:53.214Z,98.50
2023-02-11T00:23:19.975Z,98.50
2023-02-11T00:25:46.676Z,98.50
2023-02-11T00:28:13.385Z,98.50
2023-02-11T00:30:40.387Z,98.50
2023-02-11T00:33:07.195Z,98.50
2023-02-11T00:35:33.854Z,98.50
2023-02-11T00:38:00.597Z,98.50
2023-02-11T00:40:27.676Z,98.50
2023-02-11T00:42:54.367Z,98.50
2023-02-11T00:45:21.299Z,98.50
2023-02-11T00:47:48.254Z,98.50
2023-02-11T00:50:15.053Z,98.50
2023-02-11T00:52:41.881Z,98.50
2023-02-11T00:55:09.152Z,98.50
2023-02-11T00:57:35.873Z,98.50
2023-02-11T01:00:03.856Z,98.50
2023-02-11T01:02:30.526Z,98.50
2023-02-11T01:04:59.558Z,98.50
2023-02-11T01:07:27.180Z,98.50
2023-02-11T01:09:54.053Z,98.50
2023-02-11T01:12:21.280Z,98.50
2023-02-11T01:14:48.181Z,98.50
2023-02-11T01:17:15.662Z,98.50
2023-02-11T01:19:42.373Z,98.50
2023-02-11T01:22:09.057Z,98.50
2023-02-11T01:24:35.739Z,98.50
2023-02-11T01:27:02.451Z,98.50
2023-02-11T01:29:29.211Z,98.50
2023-02-11T01:31:55.880Z,98.50
2023-02-11T01:34:22.593Z,98.50
2023-02-11T01:36:49.226Z,98.50
2023-02-11T01:39:15.920Z,98.50
2023-02-11T01:41:42.617Z,98.50
2023-02-11T01:44:36.237Z,98.50
2023-02-11T01:47:05.946Z,98.50
2023-02-11T01:49:47.346Z,98.50
2023-02-11T01:52:29.328Z,98.50
2023-02-11T01:55:20.321Z,98.50
2023-02-11T01:57:52.699Z,98.50
2023-02-11T02:00:28.830Z,98.50
2023-02-11T02:03:22.532Z,98.50
2023-02-11T02:05:57.639Z,98.50
2023-02-11T02:08:29.398Z,98.50
2023-02-11T02:10:58.444Z,98.50
2023-02-11T02:13:25.855Z,98.50
2023-02-11T02:15:54.817Z,98.50
2023-02-11T02:18:39.940Z,98.50
2023-02-11T02:21:28.495Z,98.50
2023-02-11T02:24:18.714Z,98.50
2023-02-11T02:27:04.289Z,98.50
2023-02-11T02:29:56.800Z,98.50
2023-02-11T02:32:49.142Z,98.50
2023-02-11T02:35:52.711Z,98.50
2023-02-11T02:38:27.989Z,98.50
2023-02-11T02:41:03.573Z,98.50
2023-02-11T02:43:31.190Z,98.50
2023-02-11T02:46:20.473Z,98.50
2023-02-11T02:48:49.604Z,98.50
2023-02-11T02:51:31.288Z,98.50
2023-02-11T02:54:36.935Z,98.50
2023-02-11T02:57:32.647Z,98.50
2023-02-11T03:00:14.237Z,98.50
2023-02-11T03:02:43.965Z,98.50
2023-02-11T03:05:16.471Z,98.50
2023-02-11T03:07:48.241Z,98.50
2023-02-11T03:10:25.003Z,98.50
2023-02-11T03:12:53.561Z,98.50
2023-02-11T03:15:23.062Z,98.50
2023-02-11T03:17:52.987Z,98.50
2023-02-11T03:20:22.907Z,98.50
2023-02-11T03:22:52.225Z,98.50
2023-02-11T03:25:20.620Z,98.50
2023-02-11T03:27:54.062Z,98.50
2023-02-11T03:30:26.957Z,98.50
2023-02-11T03:33:07.227Z,98.50
2023-02-11T03:35:44.701Z,98.50
2023-02-11T03:38:37.449Z,98.50
2023-02-11T03:41:06.858Z,98.50
2023-02-11T03:43:46.273Z,98.50
2023-02-11T03:46:16.279Z,98.50
2023-02-11T03:48:49.223Z,98.50
2023-02-11T03:51:16.990Z,98.50
2023-02-11T03:53:46.400Z,98.50
2023-02-11T03:56:17.749Z,98.50
2023-02-11T03:58:45.688Z,98.50
2023-02-11T04:01:12.586Z,98.50
2023-02-11T04:03:39.304Z,98.50
2023-02-11T04:06:06.606Z,98.50
2023-02-11T04:08:33.307Z,98.50
2023-02-11T04:10:59.986Z,98.50
2023-02-11T04:13:26.719Z,98.50
2023-02-11T04:15:53.732Z,98.50
2023-02-11T04:18:20.628Z,98.50
2023-02-11T04:20:47.833Z,98.50
2023-02-11T04:23:14.482Z,98.50
2023-02-11T04:25:41.102Z,98.50
2023-02-11T04:28:07.814Z,98.50
2023-02-11T04:30:34.509Z,98.50
2023-02-11T04:33:01.155Z,98.50
2023-02-11T04:35:27.810Z,98.50
2023-02-11T04:37:54.488Z,98.50
2023-02-11T04:40:21.142Z,98.50
2023-02-11T04:42:47.777Z,98.50
2023-02-11T04:45:14.426Z,98.50
2023-02-11T04:47:41.063Z,98.50
2023-02-11T04:50:07.751Z,98.50
2023-02-11T04:52:34.428Z,98.50
2023-02-11T04:55:01.117Z,98.50
2023-02-11T04:57:27.998Z,98.50
2023-02-11T04:59:54.622Z,98.50
2023-02-11T05:02:21.430Z,98.50
2023-02-11T05:04:48.129Z,98.50
2023-02-11T05:07:14.761Z,98.50
2023-02-11T05:09:41.531Z,98.50
2023-02-11T05:12:08.887Z,98.50
2023-02-11T05:14:35.568Z,98.50
2023-02-11T05:17:02.279Z,98.50
2023-02-11T05:19:29.000Z,98.50
2023-02-11T05:22:02.612Z,98.50
2023-02-11T05:24:31.943Z,98.50
2023-02-11T05:26:58.648Z,98.50
2023-02-11T05:29:25.296Z,98.50
2023-02-11T05:31:52.486Z,98.50
2023-02-11T05:34:19.254Z,98.50
2023-02-11T05:36:45.945Z,98.50
2023-02-11T05:39:12.627Z,98.50
2023-02-11T05:41:39.347Z,98.50
2023-02-11T05:44:06.039Z,98.50
2023-02-11T05:46:32.757Z,98.50
2023-02-11T05:48:59.551Z,98.50
2023-02-11T05:51:26.250Z,98.50
2023-02-11T05:53:53.194Z,98.50
2023-02-11T05:56:19.860Z,98.50
2023-02-11T05:58:46.624Z,98.50
2023-02-11T06:01:13.395Z,98.50
2023-02-11T06:03:40.182Z,98.50
2023-02-11T06:06:11.417Z,98.50
2023-02-11T06:08:39.454Z,98.50
2023-02-11T06:11:06.370Z,98.50
2023-02-11T06:13:33.060Z,98.50
2023-02-11T06:16:01.381Z,98.50
2023-02-11T06:18:28.466Z,98.50
2023-02-11T06:20:55.934Z,98.50
2023-02-11T06:23:22.703Z,98.50
2023-02-11T06:25:50.024Z,98.50
2023-02-11T06:28:16.970Z,98.50
2023-02-11T06:30:43.813Z,98.50
2023-02-11T06:33:10.636Z,98.50
2023-02-11T06:35:40.131Z,98.50
2023-02-11T06:38:06.823Z,98.50
2023-02-11T06:40:33.485Z,98.50
2023-02-11T06:43:00.315Z,98.50
2023-02-11T06:45:26.990Z,98.50
2023-02-11T06:47:53.651Z,98.50
2023-02-11T06:50:20.757Z,98.50
2023-02-11T06:52:47.562Z,98.50
2023-02-11T06:55:15.184Z,98.50
2023-02-11T06:57:41.872Z,98.50
2023-02-11T07:00:09.499Z,98.50
2023-02-11T07:02:36.445Z,98.50
2023-02-11T07:05:04.861Z,98.50
2023-02-11T07:07:34.099Z,98.50
2023-02-11T07:10:03.039Z,98.50
2023-02-11T07:12:30.671Z,98.50
2023-02-11T07:14:58.154Z,98.50
2023-02-11T07:17:24.885Z,98.50
2023-02-11T07:19:51.698Z,98.50
2023-02-11T07:22:18.374Z,98.50
2023-02-11T07:24:45.429Z,98.50
2023-02-11T07:27:12.231Z,98.50
2023-02-11T07:29:39.818Z,98.50
2023-02-11T07:32:06.793Z,98.50
2023-02-11T07:34:33.873Z,98.50
2023-02-11T07:37:00.514Z,98.50
2023-02-11T07:39:27.442Z,98.50
2023-02-11T07:41:54.674Z,98.50
2023-02-11T07:44:21.471Z,98.50
2023-02-11T07:46:49.203Z,98.50
2023-02-11T07:49:16.876Z,98.50
2023-02-11T07:51:43.621Z,98.50
2023-02-11T07:54:11.599Z,98.50
2023-02-11T07:56:38.364Z,98.50
2023-02-11T07:59:05.135Z,98.50
2023-02-11T08:01:32.433Z,98.50
2023-02-11T08:04:00.814Z,98.50
2023-02-11T08:06:30.319Z,98.50
2023-02-11T08:08:57.173Z,98.50
2023-02-11T08:11:28.717Z,98.50
2023-02-11T08:13:56.576Z,98.50
2023-02-11T08:16:29.159Z,98.50
2023-02-11T08:18:57.990Z,98.50
2023-02-11T08:21:25.498Z,98.50
2023-02-11T08:23:52.396Z,98.50
2023-02-11T08:26:22.044Z,98.50
2023-02-11T08:28:50.770Z,98.50
2023-02-11T08:31:23.638Z,98.50
2023-02-11T08:33:51.194Z,98.50
2023-02-11T08:36:23.345Z,98.50
2023-02-11T08:38:50.041Z,98.50
2023-02-11T08:41:17.949Z,98.50
2023-02-11T08:43:46.113Z,98.50
2023-02-11T08:46:15.577Z,98.50
2023-02-11T08:48:43.158Z,98.50
2023-02-11T08:51:13.470Z,98.50
2023-02-11T08:53:40.223Z,98.50
2023-02-11T08:56:06.993Z,98.50
2023-02-11T08:58:33.658Z,98.50
2023-02-11T09:01:00.481Z,98.50
2023-02-11T09:03:27.434Z,98.50
2023-02-11T09:05:54.822Z,98.50
2023-02-11T09:08:21.587Z,98.50
2023-02-11T09:10:48.510Z,98.50
2023-02-11T09:13:16.436Z,98.50
2023-02-11T09:15:46.305Z,98.50
2023-02-11T09:18:12.954Z,98.50
2023-02-11T09:20:39.722Z,98.50
2023-02-11T09:23:06.421Z,98.50
2023-02-11T09:25:33.049Z,98.50
2023-02-11T09:27:59.697Z,98.30
2023-02-11T09:30:26.561Z,97.80
2023-02-11T09:32:53.277Z,97.70
2023-02-11T09:35:19.937Z,97.60
2023-02-11T09:37:46.619Z,98.40
2023-02-11T09:40:14.954Z,98.50
2023-02-11T09:43:06.545Z,98.50
2023-02-11T09:45:33.350Z,98.50
2023-02-11T09:48:06.436Z,98.50
2023-02-11T09:50:40.771Z,98.50
2023-02-11T09:53:36.476Z,97.80
2023-02-11T09:56:11.261Z,97.00
2023-02-11T09:58:41.378Z,96.40
2023-02-11T10:01:23.048Z,94.60
2023-02-11T10:04:02.270Z,93.20
2023-02-11T10:06:48.974Z,93.10
2023-02-11T10:09:39.075Z,92.90
2023-02-11T10:12:17.796Z,93.30
2023-02-11T10:14:50.429Z,93.30
2023-02-11T10:17:22.991Z,92.20
2023-02-11T10:19:59.985Z,91.80
2023-02-11T10:22:41.572Z,91.10
2023-02-11T10:25:28.483Z,91.10
2023-02-11T10:27:57.907Z,90.50
2023-02-11T10:30:51.415Z,89.80
2023-02-11T10:33:36.349Z,90.90
2023-02-11T10:36:04.773Z,91.10
2023-02-11T10:38:32.994Z,91.80
2023-02-11T10:41:00.039Z,91.00
2023-02-11T10:43:28.837Z,90.50
2023-02-11T10:45:56.610Z,89.70
2023-02-11T10:48:43.627Z,89.60
2023-02-11T10:51:14.540Z,89.30
2023-02-11T10:53:41.482Z,89.70
2023-02-11T10:56:12.011Z,90.00
2023-02-11T10:58:46.066Z,90.50
2023-02-11T11:01:23.968Z,90.40
2023-02-11T11:03:52.830Z,89.90
2023-02-11T11:06:33.733Z,88.90
2023-02-11T11:09:01.206Z,88.10
2023-02-11T11:11:27.934Z,87.80
2023-02-11T11:13:58.201Z,87.90
2023-02-11T11:16:27.602Z,87.40
2023-02-11T11:19:06.647Z,87.50
2023-02-11T11:21:52.456Z,87.20
2023-02-11T11:24:34.545Z,87.00
2023-02-11T11:27:04.178Z,86.90
2023-02-11T11:29:48.061Z,87.30
2023-02-11T11:32:37.080Z,87.70
2023-02-11T11:35:09.705Z,87.50
2023-02-11T11:37:38.628Z,86.70
2023-02-11T11:40:13.358Z,87.00
2023-02-11T11:42:40.453Z,86.30
2023-02-11T11:45:16.309Z,86.50
2023-02-11T11:47:54.878Z,86.00
2023-02-11T11:50:47.474Z,85.10
2023-02-11T11:53:26.039Z,85.00
2023-02-11T11:56:19.854Z,84.60
2023-02-11T11:58:46.885Z,85.40
2023-02-11T12:01:34.280Z,87.70
2023-02-11T12:04:19.494Z,87.70
2023-02-11T12:07:00.431Z,88.50
2023-02-11T12:09:45.237Z,89.60
2023-02-11T12:12:33.247Z,89.40
2023-02-11T12:15:26.284Z,88.80
2023-02-11T12:18:28.168Z,88.40
2023-02-11T12:21:23.924Z,87.50
2023-02-11T12:24:17.203Z,87.70
2023-02-11T12:27:01.134Z,87.70
2023-02-11T12:29:54.961Z,88.00
2023-02-11T12:32:44.112Z,87.80
2023-02-11T12:35:22.947Z,87.20
2023-02-11T12:38:18.895Z,85.70
2023-02-11T12:40:51.059Z,84.80
2023-02-11T12:43:24.882Z,84.10
2023-02-11T12:46:05.119Z,83.80
2023-02-11T12:48:57.130Z,82.40
2023-02-11T12:51:31.929Z,82.00
2023-02-11T12:54:17.495Z,81.80
2023-02-11T12:57:02.317Z,81.90
2023-02-11T12:59:59.504Z,82.00
2023-02-11T13:02:36.659Z,80.10
2023-02-11T13:05:25.980Z,80.80
2023-02-11T13:07:58.118Z,80.60
2023-02-11T13:10:35.231Z,80.40
2023-02-11T13:13:18.976Z,80.40
2023-02-11T13:16:09.989Z,81.00
2023-02-11T13:18:45.633Z,81.30
2023-02-11T13:21:15.471Z,82.70
2023-02-11T13:24:01.000Z,83.70
2023-02-11T13:27:10.101Z,84.30
2023-02-11T13:30:04.413Z,83.60
2023-02-11T13:32:56.089Z,81.60
2023-02-11T13:35:34.984Z,78.90
2023-02-11T13:38:04.972Z,78.30
2023-02-11T13:40:36.455Z,76.30
2023-02-11T13:43:06.080Z,75.50
2023-02-11T13:45:46.096Z,75.80
2023-02-11T13:48:24.629Z,76.80
2023-02-11T13:50:54.247Z,76.30
2023-02-11T13:53:21.649Z,76.70
2023-02-11T13:55:51.947Z,77.50
2023-02-11T13:58:27.505Z,78.40
2023-02-11T14:00:54.974Z,79.10
2023-02-11T14:03:46.084Z,79.70
2023-02-11T14:06:41.157Z,79.30
2023-02-11T14:09:17.753Z,79.60
2023-02-11T14:11:48.189Z,80.70
2023-02-11T14:14:24.323Z,82.20
2023-02-11T14:17:00.740Z,81.70
2023-02-11T14:19:47.168Z,81.10
2023-02-11T14:22:31.604Z,82.00
2023-02-11T14:25:03.106Z,83.20
2023-02-11T14:27:42.430Z,83.90
2023-02-11T14:30:32.026Z,84.50
2023-02-11T14:33:30.900Z,84.00
2023-02-11T14:36:43.725Z,83.70
2023-02-11T14:39:28.206Z,84.80
2023-02-11T14:41:55.553Z,85.50
2023-02-11T14:44:30.791Z,85.40
2023-02-11T14:46:58.312Z,85.00
2023-02-11T14:49:31.347Z,85.20
2023-02-11T14:52:06.109Z,85.60
2023-02-11T14:54:34.946Z,87.20
2023-02-11T14:57:11.943Z,87.60
2023-02-11T14:59:39.097Z,87.80
2023-02-11T15:02:26.059Z,88.30
2023-02-11T15:04:52.802Z,87.90
2023-02-11T15:07:19.486Z,88.20
2023-02-11T15:09:52.515Z,89.10
2023-02-11T15:12:23.667Z,89.00
2023-02-11T15:14:53.626Z,90.10
2023-02-11T15:17:24.676Z,90.50
2023-02-11T15:19:57.837Z,90.90
2023-02-11T15:22:28.148Z,91.40
2023-02-11T15:25:11.342Z,91.70
2023-02-11T15:27:43.844Z,91.90
2023-02-11T15:30:36.885Z,91.60
2023-02-11T15:33:05.857Z,92.60
2023-02-11T15:35:40.919Z,93.30
2023-02-11T15:38:08.133Z,92.80
2023-02-11T15:40:36.959Z,92.50
2023-02-11T15:43:08.984Z,92.20
2023-02-11T15:45:38.020Z,91.90
2023-02-11T15:48:17.589Z,92.10
2023-02-11T15:50:51.365Z,92.30
2023-02-11T15:53:57.045Z,92.80
2023-02-11T15:56:30.506Z,93.20
2023-02-11T15:59:02.553Z,93.40
2023-02-11T16:01:35.755Z,94.30
2023-02-11T16:04:05.299Z,94.40
2023-02-11T16:06:36.924Z,95.40
2023-02-11T16:09:08.812Z,95.40
2023-02-11T16:11:53.612Z,95.60
2023-02-11T16:14:37.083Z,95.80
2023-02-11T16:17:12.858Z,95.90
2023-02-11T16:19:45.632Z,96.10
2023-02-11T16:22:22.548Z,96.60
2023-02-11T16:24:51.004Z,96.60
2023-02-11T16:27:17.610Z,96.70
2023-02-11T16:29:48.445Z,96.80
2023-02-11T16:32:19.420Z,97.00
2023-02-11T16:34:47.216Z,97.10
2023-02-11T16:37:13.870Z,97.00
2023-02-11T16:39:40.766Z,97.00
2023-02-11T16:42:07.897Z,97.20
2023-02-11T16:44:34.897Z,98.00
2023-02-11T16:47:06.174Z,98.50
2023-02-11T16:49:40.346Z,98.50
2023-02-11T16:52:12.540Z,98.50
2023-02-11T16:54:39.268Z,98.50
2023-02-11T16:57:16.934Z,98.50
2023-02-11T16:59:44.799Z,98.50
2023-02-11T17:02:30.508Z,98.50
2023-02-11T17:05:00.660Z,98.50
2023-02-11T17:07:28.134Z,98.50
2023-02-11T17:09:54.886Z,98.50
2023-02-11T17:12:21.942Z,98.50
2023-02-11T17:14:48.580Z,98.50
2023-02-11T17:17:15.942Z,98.50
2023-02-11T17:19:42.698Z,98.50
2023-02-11T17:22:11.213Z,98.50
2023-02-11T17:24:38.035Z,98.50
2023-02-11T17:27:04.910Z,98.50
2023-02-11T17:29:31.612Z,98.50
2023-02-11T17:31:58.377Z,98.50
2023-02-11T17:34:25.252Z,98.50
2023-02-11T17:36:51.984Z,98.50
2023-02-11T17:39:20.928Z,98.50
2023-02-11T17:41:47.639Z,98.50
2023-02-11T17:44:15.430Z,98.50
2023-02-11T17:46:42.373Z,98.50
2023-02-11T17:49:11.213Z,98.50
2023-02-11T17:51:39.925Z,98.50
2023-02-11T17:54:10.722Z,98.50
2023-02-11T17:56:38.004Z,98.50
2023-02-11T17:59:06.768Z,98.50
2023-02-11T18:01:34.355Z,98.50
2023-02-11T18:04:01.724Z,98.50
2023-02-11T18:06:31.429Z,98.50
2023-02-11T18:08:59.852Z,98.50
2023-02-11T18:11:27.827Z,98.50
2023-02-11T18:13:54.656Z,98.50
2023-02-11T18:16:23.137Z,98.50
2023-02-11T18:18:50.528Z,98.50
2023-02-11T18:21:20.065Z,98.50
2023-02-11T18:23:47.836Z,98.50
2023-02-11T18:26:16.222Z,98.50
2023-02-11T18:28:45.683Z,98.50
2023-02-11T18:31:13.755Z,98.50
2023-02-11T18:33:42.013Z,98.50
2023-02-11T18:36:11.806Z,98.50
2023-02-11T18:38:39.215Z,98.50
2023-02-11T18:41:07.296Z,98.50
2023-02-11T18:43:34.713Z,98.50
2023-02-11T18:46:06.113Z,98.50
2023-02-11T18:48:32.914Z,98.50
2023-02-11T18:50:59.567Z,98.50
2023-02-11T18:53:26.248Z,98.50
2023-02-11T18:55:53.979Z,98.50
2023-02-11T18:58:23.806Z,98.50
2023-02-11T19:00:50.961Z,98.50
2023-02-11T19:03:17.887Z,98.50
2023-02-11T19:05:49.184Z,98.50
2023-02-11T19:08:16.970Z,98.50
2023-02-11T19:10:46.493Z,98.50
2023-02-11T19:13:13.770Z,98.50
2023-02-11T19:15:42.025Z,98.50
2023-02-11T19:18:08.840Z,98.50
2023-02-11T19:20:35.615Z,98.50
2023-02-11T19:23:02.345Z,98.50
2023-02-11T19:25:29.162Z,98.50
2023-02-11T19:27:55.833Z,98.50
2023-02-11T19:30:22.554Z,98.50
2023-02-11T19:32:53.201Z,98.50
2023-02-11T19:35:20.324Z,98.50
2023-02-11T19:37:46.991Z,98.50
2023-02-11T19:40:15.475Z,98.50
2023-02-11T19:42:42.658Z,98.50
2023-02-11T19:45:09.749Z,98.50
2023-02-11T19:47:37.078Z,98.50
2023-02-11T19:50:05.669Z,98.50
2023-02-11T19:52:32.369Z,98.50
2023-02-11T19:55:00.123Z,98.50
2023-02-11T19:57:26.753Z,98.50
2023-02-11T19:59:55.035Z,98.50
2023-02-11T20:02:21.791Z,98.50
2023-02-11T20:04:48.591Z,98.50
2023-02-11T20:07:15.623Z,98.50
2023-02-11T20:09:42.596Z,98.50
2023-02-11T20:12:09.697Z,98.50
2023-02-11T20:14:36.451Z,98.50
2023-02-11T20:17:03.136Z,98.50
2023-02-11T20:19:30.589Z,98.50
2023-02-11T20:21:57.260Z,98.50
2023-02-11T20:24:25.388Z,98.50
2023-02-11T20:26:55.764Z,98.50
2023-02-11T20:29:24.087Z,98.50
2023-02-11T20:31:51.294Z,98.50
2023-02-11T20:34:18.325Z,98.50
2023-02-11T20:36:51.703Z,98.50
2023-02-11T20:39:21.601Z,98.50
2023-02-11T20:41:48.824Z,98.50
2023-02-11T20:44:15.518Z,98.50
2023-02-11T20:46:46.428Z,98.50
2023-02-11T20:49:16.042Z,98.50
2023-02-11T20:51:43.076Z,98.50
2023-02-11T20:54:18.807Z,98.50
2023-02-11T20:56:48.077Z,98.50
2023-02-11T20:59:16.580Z,98.50
2023-02-11T21:01:46.856Z,98.50
2023-02-11T21:04:19.456Z,98.50
2023-02-11T21:06:49.074Z,98.50
2023-02-11T21:09:19.811Z,98.50
2023-02-11T21:11:47.843Z,98.50
2023-02-11T21:14:15.034Z,98.50
2023-02-11T21:16:42.257Z,98.50
2023-02-11T21:19:09.017Z,98.50
2023-02-11T21:21:37.362Z,98.50
2023-02-11T21:24:05.268Z,98.50
2023-02-11T21:26:32.192Z,98.50
2023-02-11T21:28:58.893Z,98.50
2023-02-11T21:31:28.699Z,98.50
2023-02-11T21:33:56.592Z,98.50
2023-02-11T21:36:24.214Z,98.50
2023-02-11T21:38:51.192Z,98.50
2023-02-11T21:41:21.791Z,98.50
2023-02-11T21:43:48.933Z,98.50
2023-02-11T21:46:16.668Z,98.50
2023-02-11T21:48:43.485Z,98.50
2023-02-11T21:51:14.885Z,98.50
2023-02-11T21:53:41.671Z,98.50
2023-02-11T21:56:11.862Z,98.50
2023-02-11T21:58:38.782Z,98.50
2023-02-11T22:01:18.408Z,98.50
2023-02-11T22:03:45.852Z,98.50
2023-02-11T22:06:21.255Z,98.50
2023-02-11T22:08:51.520Z,98.50
2023-02-11T22:11:18.764Z,98.50
2023-02-11T22:13:46.591Z,98.50
2023-02-11T22:16:16.143Z,98.50
2023-02-11T22:18:46.308Z,98.50
2023-02-11T22:21:16.398Z,98.50
2023-02-11T22:23:43.204Z,98.50
2023-02-11T22:26:19.465Z,98.50
2023-02-11T22:28:47.622Z,98.50
2023-02-11T22:31:17.176Z,98.50
2023-02-11T22:33:44.361Z,98.50
2023-02-11T22:36:16.531Z,98.50
2023-02-11T22:38:43.442Z,98.50
2023-02-11T22:41:11.472Z,98.50
2023-02-11T22:43:38.533Z,98.50
2023-02-11T22:46:07.209Z,98.50
2023-02-11T22:48:35.339Z,98.50
2023-02-11T22:51:10.102Z,98.50
2023-02-11T22:53:36.883Z,98.50
2023-02-11T22:56:09.085Z,98.50
2023-02-11T22:58:36.892Z,98.50
2023-02-11T23:01:04.816Z,98.50
2023-02-11T23:03:32.451Z,98.50
2023-02-11T23:06:00.042Z,98.50
2023-02-11T23:08:28.317Z,98.50
2023-02-11T23:10:55.209Z,98.50
2023-02-11T23:13:21.873Z,98.50
2023-02-11T23:15:48.527Z,98.50
2023-02-11T23:18:15.641Z,98.50
2023-02-11T23:20:44.074Z,98.50
2023-02-11T23:23:11.305Z,98.50
2023-02-11T23:25:42.928Z,98.50
2023-02-11T23:28:10.378Z,98.50
2023-02-11T23:30:37.325Z,98.50
2023-02-11T23:33:04.075Z,98.50
2023-02-11T23:35:30.784Z,98.50
2023-02-11T23:37:57.494Z,98.50
2023-02-11T23:40:24.187Z,98.50
2023-02-11T23:42:51.548Z,98.50
2023-02-11T23:45:18.318Z,98.50
2023-02-11T23:47:45.079Z,98.50
2023-02-11T23:50:12.120Z,98.50
2023-02-11T23:52:39.034Z,98.50
2023-02-11T23:55:06.286Z,98.50
2023-02-11T23:57:33.573Z,98.50
